Naval Anacostia Annex, DC (20373)

8:36 AM EDT on September 05, 2015 (GMT -0400)
Capital Hill | | Change Station
CLOSE
Current Station
Personal Weather Station
Location: Washington, DC
Elevation: 72 ft
Nearby Weather Stations

Elev 72 ft 38.88 °N, 76.99 °W | Updated 42 seconds ago

Overcast
Overcast
75.0 °F
Feels Like 76 °F
N
0.0
Wind Variable Wind from SW
Gusts 0.0 mph

Today
High -- | Low -- °F
--% Chance of Precip.
Yesterday
High -- | Low -- °F
Precip. -- in
6:40 AM 7:32 PM
Waning Gibbous, 49% visible
Pressure 30.22 in
Visibility 10.0 miles
Clouds Few 1400 ft
Scattered Clouds 2700 ft
Overcast 3200 ft
Heat Index 76 °F
Dew Point 68 °F
Humidity 78%
Rainfall 0.00 in
Snow Depth Not available.
UV 1.0 out of 12
Pollen 10.20 out of 12
Air Quality Not available.
Flu Activity Not available.
METAR KDCA 051152Z 06009KT 10SM FEW014 SCT027 OVC032 23/20 A3022 RMK AO2 SLP232 T02330200 10244 20233 51016
Pressure 30.22 in
Visibility 10.0 miles
Clouds Few 1400 ft
Scattered Clouds 2700 ft
Overcast 3200 ft
Heat Index 76 °F
Dew Point 68 °F
Humidity 78%
Rainfall 0.00 in
Snow Depth Not available.
UV 1.0 out of 12
Pollen 10.20 out of 12
Air Quality Not available.
Flu Activity Not available.
METAR KDCA 051152Z 06009KT 10SM FEW014 SCT027 OVC032 23/20 A3022 RMK AO2 SLP232 T02330200 10244 20233 51016

10-Day Weather Forecast

×

Almanac

Astronomy

Sep. 05, 2015 Rise Set
Actual Time
Civil Twilight
Nautical Twilight
Astronomical Twilight
Moon
Length of Visible Light
Length of Day
Tomorrow will be .
, % of the Moon is Illuminated

Today's Extremes

State Highs State Lows

Community

WunderPhotos

Upload Photos

1,852,454 photos uploaded!

WunderBlogs® & News

Nearby

Air Quality

  Air Quality AQ Index Pollutant
Not available.

Snow Depth

Station Depth Elevation

Earthquake Activity

City Distance Mag. Time & Date
Minimum magnitude displayed is 2.5.

Coastal Water Temperatures

Place Temperature

Stations

Nearby Weather Stations

Station Location Temp. Windchill Dew Point Humidity Wind Precip. Elev Updated Type